createdAt,value
2022-12-06T00:00:49.054Z,3.88
2022-12-06T00:03:21.752Z,4.28
2022-12-06T00:06:02.429Z,4.00
2022-12-06T00:08:36.091Z,3.35
2022-12-06T00:11:15.359Z,3.00
2022-12-06T00:13:53.002Z,4.18
2022-12-06T00:16:27.069Z,3.97
2022-12-06T00:19:00.631Z,3.60
2022-12-06T00:21:37.610Z,3.78
2022-12-06T00:24:20.610Z,3.38
2022-12-06T00:26:53.280Z,3.15
2022-12-06T00:29:25.821Z,3.67
2022-12-06T00:31:58.681Z,3.33
2022-12-06T00:34:31.400Z,3.28
2022-12-06T00:37:04.036Z,2.97
2022-12-06T00:39:36.645Z,3.92
2022-12-06T00:42:09.324Z,3.33
2022-12-06T00:44:41.962Z,3.83
2022-12-06T00:47:14.496Z,3.72
2022-12-06T00:49:47.058Z,3.75
2022-12-06T00:52:19.684Z,3.45
2022-12-06T00:54:52.322Z,3.38
2022-12-06T00:57:24.962Z,3.30
2022-12-06T00:59:57.968Z,3.22
2022-12-06T01:02:30.818Z,3.78
2022-12-06T01:05:03.727Z,3.50
2022-12-06T01:07:36.349Z,3.45
2022-12-06T01:10:09.207Z,3.22
2022-12-06T01:12:41.722Z,3.00
2022-12-06T01:15:17.957Z,3.50
2022-12-06T01:17:50.533Z,2.70
2022-12-06T01:20:23.118Z,2.97
2022-12-06T01:22:55.576Z,3.22
2022-12-06T01:25:30.725Z,3.30
2022-12-06T01:28:06.997Z,3.03
2022-12-06T01:30:40.332Z,3.10
2022-12-06T01:33:12.934Z,2.83
2022-12-06T01:35:45.579Z,3.15
2022-12-06T01:38:18.559Z,3.25
2022-12-06T01:41:00.510Z,2.85
2022-12-06T01:43:43.190Z,2.53
2022-12-06T01:46:33.553Z,2.83
2022-12-06T01:49:25.379Z,3.30
2022-12-06T01:52:05.946Z,2.88
2022-12-06T01:54:40.270Z,3.00
2022-12-06T01:57:16.548Z,3.35
2022-12-06T01:59:49.196Z,2.95
2022-12-06T02:02:22.168Z,3.45
2022-12-06T02:04:56.527Z,2.67
2022-12-06T02:07:29.870Z,3.42
2022-12-06T02:10:06.354Z,3.13
2022-12-06T02:12:39.028Z,3.03
2022-12-06T02:15:11.679Z,2.92
2022-12-06T02:18:15.616Z,3.42
2022-12-06T02:21:12.432Z,2.83
2022-12-06T02:24:14.309Z,2.75
2022-12-06T02:27:09.829Z,3.08
2022-12-06T02:30:31.303Z,3.05
2022-12-06T02:33:13.017Z,2.63
2022-12-06T02:36:03.680Z,2.47
2022-12-06T02:38:49.255Z,2.70
2022-12-06T02:41:29.134Z,2.10
2022-12-06T02:44:12.735Z,2.38
2022-12-06T02:46:50.252Z,2.75
2022-12-06T02:49:27.953Z,2.72
2022-12-06T02:52:02.769Z,2.85
2022-12-06T02:54:35.614Z,2.47
2022-12-06T02:57:08.179Z,2.50
2022-12-06T02:59:54.167Z,2.40
2022-12-06T03:02:26.834Z,2.17
2022-12-06T03:05:25.040Z,2.17
2022-12-06T03:08:04.267Z,3.00
2022-12-06T03:10:55.845Z,2.40
2022-12-06T03:13:50.715Z,2.53
2022-12-06T03:16:32.725Z,2.65
2022-12-06T03:19:19.832Z,2.75
2022-12-06T03:22:08.946Z,2.13
2022-12-06T03:24:44.345Z,2.78
2022-12-06T03:27:20.754Z,2.50
2022-12-06T03:30:00.928Z,2.35
2022-12-06T03:32:38.188Z,2.67
2022-12-06T03:35:15.519Z,2.60
2022-12-06T03:37:57.508Z,3.33
2022-12-06T03:40:35.107Z,2.60
2022-12-06T03:43:08.407Z,2.33
2022-12-06T03:46:01.981Z,2.60
2022-12-06T03:48:49.333Z,3.13
2022-12-06T03:51:36.140Z,2.78
2022-12-06T03:54:08.958Z,3.25
2022-12-06T03:56:41.559Z,2.88
2022-12-06T03:59:17.908Z,3.05
2022-12-06T04:04:24.959Z,3.33
2022-12-06T04:06:57.498Z,3.08
2022-12-06T04:09:48.667Z,3.40
2022-12-06T04:12:39.836Z,3.10
2022-12-06T04:15:12.590Z,2.50
2022-12-06T04:18:03.566Z,3.45
2022-12-06T04:21:08.539Z,2.95
2022-12-06T04:23:45.069Z,2.70
2022-12-06T04:26:22.901Z,3.92
2022-12-06T04:29:13.940Z,3.88
2022-12-06T04:32:05.168Z,3.42
2022-12-06T04:34:56.467Z,3.40
2022-12-06T04:37:47.767Z,3.03
2022-12-06T04:40:20.288Z,3.30
2022-12-06T04:43:11.434Z,3.72
2022-12-06T04:45:43.967Z,3.65
2022-12-06T04:48:16.504Z,4.20
2022-12-06T04:50:50.705Z,3.53
2022-12-06T04:53:23.429Z,4.32
2022-12-06T04:55:56.498Z,3.47
2022-12-06T04:58:28.964Z,3.80
2022-12-06T05:01:01.987Z,3.10
2022-12-06T05:03:38.335Z,3.42
2022-12-06T05:06:13.594Z,3.35
2022-12-06T05:08:46.140Z,2.83
2022-12-06T05:11:18.761Z,3.45
2022-12-06T05:13:51.421Z,3.22
2022-12-06T05:16:24.077Z,2.97
2022-12-06T05:18:56.760Z,3.50
2022-12-06T05:21:29.512Z,3.70
2022-12-06T05:24:02.057Z,3.45
2022-12-06T05:26:34.570Z,4.00
2022-12-06T05:29:07.153Z,3.40
2022-12-06T05:31:39.765Z,3.28
2022-12-06T05:34:12.299Z,3.90
2022-12-06T05:36:45.932Z,3.22
2022-12-06T05:39:18.500Z,3.40
2022-12-06T05:41:51.030Z,4.03
2022-12-06T05:44:23.733Z,3.20
2022-12-06T05:46:56.267Z,2.97
2022-12-06T05:49:28.801Z,3.05
2022-12-06T05:52:04.222Z,3.00
2022-12-06T05:54:36.990Z,3.30
2022-12-06T05:57:09.577Z,3.03
2022-12-06T05:59:42.257Z,2.75
2022-12-06T06:02:14.937Z,3.17
2022-12-06T06:04:47.616Z,2.92
2022-12-06T06:07:20.211Z,3.00
2022-12-06T06:09:52.712Z,2.58
2022-12-06T06:12:25.429Z,2.80
2022-12-06T06:14:57.992Z,2.67
2022-12-06T06:17:30.631Z,3.05
2022-12-06T06:20:06.057Z,3.13
2022-12-06T06:22:40.009Z,2.58
2022-12-06T06:25:12.551Z,2.85
2022-12-06T06:27:45.082Z,2.60
2022-12-06T06:30:18.586Z,3.65
2022-12-06T06:32:51.229Z,3.33
2022-12-06T06:35:24.932Z,3.03
2022-12-06T06:37:57.459Z,3.42
2022-12-06T06:40:30.557Z,2.88
2022-12-06T06:43:18.343Z,2.65
2022-12-06T06:46:03.663Z,3.22
2022-12-06T06:48:39.044Z,2.85
2022-12-06T06:51:14.794Z,3.22
2022-12-06T06:53:47.393Z,3.45
2022-12-06T06:56:20.204Z,2.78
2022-12-06T06:58:53.259Z,3.45
2022-12-06T07:01:25.890Z,3.42
2022-12-06T07:03:58.720Z,3.05
2022-12-06T07:06:31.321Z,3.20
2022-12-06T07:09:04.413Z,3.17
2022-12-06T07:11:37.672Z,3.28
2022-12-06T07:14:10.291Z,3.42
2022-12-06T07:16:42.931Z,2.97
2022-12-06T07:19:15.451Z,3.28
2022-12-06T07:21:49.012Z,3.05
2022-12-06T07:24:21.545Z,3.63
2022-12-06T07:26:56.703Z,3.25
2022-12-06T07:29:29.233Z,3.00
2022-12-06T07:32:01.802Z,2.92
2022-12-06T07:34:34.382Z,3.42
2022-12-06T07:37:06.899Z,3.20
2022-12-06T07:39:39.420Z,3.00
2022-12-06T07:42:30.934Z,3.17
2022-12-06T07:45:05.525Z,3.25
2022-12-06T07:47:42.397Z,2.97
2022-12-06T07:50:18.973Z,3.00
2022-12-06T07:52:51.630Z,2.50
2022-12-06T07:55:24.194Z,2.55
2022-12-06T07:57:56.787Z,3.33
2022-12-06T08:00:29.370Z,3.30
2022-12-06T08:03:02.311Z,2.97
2022-12-06T08:05:34.924Z,2.80
2022-12-06T08:08:07.565Z,2.20
2022-12-06T08:10:40.131Z,2.63
2022-12-06T08:13:12.811Z,2.95
2022-12-06T08:15:45.403Z,3.33
2022-12-06T08:18:17.949Z,2.85
2022-12-06T08:20:51.125Z,2.92
2022-12-06T08:23:27.904Z,2.40
2022-12-06T08:26:08.154Z,2.75
2022-12-06T08:28:43.245Z,3.00
2022-12-06T08:31:20.484Z,2.60
2022-12-06T08:33:53.417Z,2.58
2022-12-06T08:36:29.289Z,2.75
2022-12-06T08:39:02.082Z,2.13
2022-12-06T08:41:53.270Z,2.78
2022-12-06T08:44:31.410Z,2.63
2022-12-06T08:47:04.193Z,2.85
2022-12-06T08:49:36.753Z,2.70
2022-12-06T08:52:09.973Z,2.35
2022-12-06T08:54:42.504Z,2.13
2022-12-06T08:57:15.169Z,2.30
2022-12-06T08:59:47.777Z,2.17
2022-12-06T09:02:20.463Z,2.38
2022-12-06T09:04:53.092Z,2.22
2022-12-06T09:07:26.492Z,2.67
2022-12-06T09:09:59.251Z,2.17
2022-12-06T09:12:32.212Z,2.38
2022-12-06T09:15:06.034Z,2.65
2022-12-06T09:17:38.684Z,2.35
2022-12-06T09:20:17.886Z,2.38
2022-12-06T09:22:50.452Z,2.15
2022-12-06T09:25:23.180Z,2.45
2022-12-06T09:27:55.734Z,2.80
2022-12-06T09:30:28.257Z,3.00
2022-12-06T09:33:00.832Z,2.63
2022-12-06T09:35:35.215Z,2.83
2022-12-06T09:38:08.356Z,3.10
2022-12-06T09:41:24.436Z,2.40
2022-12-06T09:44:24.212Z,2.72
2022-12-06T09:47:48.014Z,2.40
2022-12-06T09:50:48.369Z,2.58
2022-12-06T09:53:45.054Z,3.08
2022-12-06T09:56:38.837Z,2.40
2022-12-06T09:59:23.516Z,2.70
2022-12-06T10:02:21.166Z,2.40
2022-12-06T10:05:45.963Z,1.98
2022-12-06T10:08:48.058Z,2.60
2022-12-06T10:11:41.735Z,2.83
2022-12-06T10:14:56.521Z,3.03
2022-12-06T10:17:33.541Z,2.20
2022-12-06T10:20:38.604Z,2.97
2022-12-06T10:23:29.421Z,2.80
2022-12-06T10:26:14.666Z,2.92
2022-12-06T10:29:02.371Z,2.42
2022-12-06T10:32:00.692Z,2.70
2022-12-06T10:34:50.125Z,2.30
2022-12-06T10:37:46.958Z,2.30
2022-12-06T10:40:31.310Z,3.00
2022-12-06T10:43:38.600Z,2.42
2022-12-06T10:47:05.637Z,2.00
2022-12-06T10:50:04.221Z,2.13
2022-12-06T10:53:01.535Z,2.15
2022-12-06T10:55:54.496Z,2.08
2022-12-06T10:58:50.160Z,1.90
2022-12-06T11:01:34.351Z,1.70
2022-12-06T11:04:27.811Z,2.13
2022-12-06T11:07:15.698Z,1.95
2022-12-06T11:09:56.589Z,1.80
2022-12-06T11:12:34.711Z,2.00
2022-12-06T11:15:33.273Z,1.95
2022-12-06T11:18:15.455Z,2.42
2022-12-06T11:20:58.769Z,1.88
2022-12-06T11:23:46.477Z,1.58
2022-12-06T11:26:44.951Z,1.60
2022-12-06T11:29:18.352Z,1.70
2022-12-06T11:31:58.358Z,1.50
2022-12-06T11:34:46.395Z,1.60
2022-12-06T11:37:27.669Z,1.75
2022-12-06T11:40:17.092Z,1.58
2022-12-06T11:42:49.846Z,1.48
2022-12-06T11:45:27.908Z,1.33
2022-12-06T11:48:15.284Z,1.50
2022-12-06T11:50:50.843Z,1.15
2022-12-06T11:53:42.104Z,1.35
2022-12-06T11:56:25.015Z,1.20
2022-12-06T11:59:15.849Z,1.30
2022-12-06T12:01:51.792Z,1.23
2022-12-06T12:04:36.546Z,1.45
2022-12-06T12:07:23.202Z,1.38
2022-12-06T12:10:36.377Z,1.45
2022-12-06T12:13:42.047Z,1.70
2022-12-06T12:16:29.646Z,1.27
2022-12-06T12:19:51.994Z,1.50
2022-12-06T12:22:29.133Z,2.03
2022-12-06T12:25:25.990Z,1.98
2022-12-06T12:28:01.949Z,1.33
2022-12-06T12:30:38.065Z,1.83
2022-12-06T12:33:17.777Z,1.48
2022-12-06T12:35:55.956Z,1.30
2022-12-06T12:38:42.172Z,1.10
2022-12-06T12:41:29.107Z,1.40
2022-12-06T12:44:42.438Z,1.40
2022-12-06T12:47:20.601Z,1.30
2022-12-06T12:50:23.834Z,1.50
2022-12-06T12:52:56.717Z,1.23
2022-12-06T12:55:31.300Z,1.10
2022-12-06T12:58:11.709Z,1.20
2022-12-06T13:00:49.035Z,1.20
2022-12-06T13:06:29.338Z,1.30
2022-12-06T13:09:05.632Z,1.73
2022-12-06T13:14:25.290Z,1.15
2022-12-06T13:17:06.713Z,1.70
2022-12-06T13:19:51.731Z,1.05
2022-12-06T13:22:38.986Z,1.25
2022-12-06T13:25:11.897Z,1.23
2022-12-06T13:27:51.584Z,1.40
2022-12-06T13:30:30.352Z,1.10
2022-12-06T13:33:20.490Z,0.88
2022-12-06T13:36:08.214Z,1.00
2022-12-06T13:38:42.365Z,0.90
2022-12-06T13:41:58.605Z,1.23
2022-12-06T13:45:00.607Z,1.45
2022-12-06T13:47:33.065Z,0.80
2022-12-06T13:50:17.804Z,1.05
2022-12-06T13:52:50.235Z,1.00
2022-12-06T13:55:25.946Z,1.20
2022-12-06T13:57:58.517Z,1.25
2022-12-06T14:00:30.956Z,1.05
2022-12-06T14:03:19.003Z,1.52
2022-12-06T14:06:14.432Z,1.10
2022-12-06T14:09:00.998Z,1.52
2022-12-06T14:11:39.538Z,1.25
2022-12-06T14:14:25.415Z,1.38
2022-12-06T14:17:11.449Z,1.52
2022-12-06T14:19:48.720Z,1.38
2022-12-06T14:22:34.533Z,1.70
2022-12-06T14:25:28.371Z,1.67
2022-12-06T14:28:12.567Z,1.70
2022-12-06T14:30:46.150Z,1.05
2022-12-06T14:33:23.328Z,1.70
2022-12-06T14:35:56.745Z,1.42
2022-12-06T14:38:31.647Z,1.08
2022-12-06T14:41:22.520Z,1.40
2022-12-06T14:43:55.041Z,1.48
2022-12-06T14:46:28.016Z,1.50
2022-12-06T14:49:19.460Z,1.65
2022-12-06T14:51:53.668Z,1.55
2022-12-06T14:54:41.860Z,1.83
2022-12-06T14:57:38.817Z,1.77
2022-12-06T15:00:26.546Z,1.50
2022-12-06T15:03:29.802Z,1.88
2022-12-06T15:06:21.926Z,2.13
2022-12-06T15:08:57.170Z,1.80
2022-12-06T15:11:48.182Z,2.10
2022-12-06T15:14:23.447Z,1.40
2022-12-06T15:17:05.207Z,2.08
2022-12-06T15:19:45.021Z,1.63
2022-12-06T15:22:25.727Z,1.60
2022-12-06T15:25:00.133Z,1.80
2022-12-06T15:27:34.141Z,2.13
2022-12-06T15:30:09.215Z,1.95
2022-12-06T15:32:41.761Z,2.45
2022-12-06T15:35:18.640Z,1.58
2022-12-06T15:37:51.309Z,1.30
2022-12-06T15:40:23.790Z,1.60
2022-12-06T15:43:02.014Z,1.92
2022-12-06T15:45:34.991Z,1.75
2022-12-06T15:48:08.797Z,1.77
2022-12-06T15:50:41.541Z,3.63
2022-12-06T15:53:17.477Z,3.13
2022-12-06T15:55:50.956Z,2.67
2022-12-06T15:58:23.692Z,3.28
2022-12-06T16:00:57.530Z,2.08
2022-12-06T16:03:33.085Z,2.78
2022-12-06T16:06:05.942Z,2.20
2022-12-06T16:08:38.477Z,2.20
2022-12-06T16:11:18.139Z,1.63
2022-12-06T16:13:51.134Z,3.20
2022-12-06T16:16:24.224Z,2.63
2022-12-06T16:18:56.832Z,1.55
2022-12-06T16:21:50.800Z,2.15
2022-12-06T16:24:23.699Z,2.25
2022-12-06T16:26:56.256Z,2.20
2022-12-06T16:29:28.728Z,2.75
2022-12-06T16:32:01.380Z,8.52
2022-12-06T16:34:34.027Z,4.93
2022-12-06T16:37:06.658Z,4.50
2022-12-06T16:39:39.378Z,3.13
2022-12-06T16:42:11.946Z,2.10
2022-12-06T16:44:53.332Z,2.00
2022-12-06T16:49:57.237Z,1.80
2022-12-06T16:52:29.735Z,2.67
2022-12-06T16:55:02.664Z,2.50
2022-12-06T16:57:35.353Z,2.35
2022-12-06T17:00:10.405Z,3.13
2022-12-06T17:02:44.721Z,2.45
2022-12-06T17:05:23.631Z,2.92
2022-12-06T17:07:56.296Z,2.22
2022-12-06T17:10:29.145Z,2.95
2022-12-06T17:13:02.109Z,3.03
2022-12-06T17:15:34.583Z,3.08
2022-12-06T17:18:07.320Z,2.35
2022-12-06T17:20:39.962Z,2.40
2022-12-06T17:23:12.521Z,9.35
2022-12-06T17:25:45.009Z,3.75
2022-12-06T17:28:17.585Z,4.38
2022-12-06T17:30:51.366Z,5.22
2022-12-06T17:33:24.008Z,3.45
2022-12-06T17:35:56.513Z,3.78
2022-12-06T17:38:29.650Z,8.90
2022-12-06T17:41:22.261Z,7.22
2022-12-06T17:43:54.740Z,6.45
2022-12-06T17:46:28.683Z,3.05
2022-12-06T17:49:01.539Z,2.53
2022-12-06T17:51:34.116Z,2.58
2022-12-06T17:54:09.397Z,3.05
2022-12-06T17:56:51.827Z,2.58
2022-12-06T17:59:30.205Z,2.25
2022-12-06T18:02:18.910Z,2.05
2022-12-06T18:04:53.812Z,2.55
2022-12-06T18:07:26.514Z,1.95
2022-12-06T18:09:59.124Z,1.85
2022-12-06T18:12:32.152Z,2.50
2022-12-06T18:15:28.279Z,2.50
2022-12-06T18:18:00.815Z,2.35
2022-12-06T18:20:33.379Z,2.03
2022-12-06T18:23:05.879Z,2.47
2022-12-06T18:25:42.104Z,2.38
2022-12-06T18:28:14.613Z,2.63
2022-12-06T18:30:47.172Z,5.32
2022-12-06T18:33:22.577Z,2.95
2022-12-06T18:35:57.072Z,3.03
2022-12-06T18:38:30.173Z,3.97
2022-12-06T18:41:13.592Z,3.15
2022-12-06T18:43:47.213Z,3.25
2022-12-06T18:46:23.967Z,3.20
2022-12-06T18:49:00.089Z,3.47
2022-12-06T18:51:35.262Z,4.95
2022-12-06T18:54:08.911Z,3.55
2022-12-06T18:56:42.303Z,3.80
2022-12-06T18:59:14.884Z,4.90
2022-12-06T19:01:47.478Z,6.20
2022-12-06T19:04:20.160Z,3.20
2022-12-06T19:06:52.919Z,3.70
2022-12-06T19:09:25.555Z,3.47
2022-12-06T19:11:58.144Z,3.17
2022-12-06T19:14:30.666Z,3.70
2022-12-06T19:17:03.238Z,3.10
2022-12-06T19:19:35.908Z,3.05
2022-12-06T19:22:08.990Z,3.90
2022-12-06T19:24:41.718Z,3.00
2022-12-06T19:27:14.220Z,3.72
2022-12-06T19:29:48.293Z,3.50
2022-12-06T19:32:21.027Z,4.05
2022-12-06T19:34:55.740Z,3.92
2022-12-06T19:37:28.644Z,3.92
2022-12-06T19:40:01.577Z,3.85
2022-12-06T19:42:53.608Z,5.25
2022-12-06T19:45:26.266Z,5.35
2022-12-06T19:47:58.780Z,5.88
2022-12-06T19:50:34.642Z,4.20
2022-12-06T19:53:07.307Z,4.57
2022-12-06T19:55:48.647Z,4.20
2022-12-06T19:58:23.648Z,3.80
2022-12-06T20:00:56.318Z,4.32
2022-12-06T20:03:28.860Z,3.88
2022-12-06T20:06:17.919Z,4.53
2022-12-06T20:08:53.028Z,4.53
2022-12-06T20:11:46.696Z,4.65
2022-12-06T20:14:19.704Z,5.57
2022-12-06T20:16:52.655Z,6.07
2022-12-06T20:19:25.528Z,4.57
2022-12-06T20:21:58.246Z,4.82
2022-12-06T20:24:32.444Z,4.43
2022-12-06T20:27:05.635Z,4.13
2022-12-06T20:29:38.293Z,5.03
2022-12-06T20:32:11.666Z,6.53
2022-12-06T20:34:44.191Z,5.43
2022-12-06T20:37:16.758Z,5.68
2022-12-06T20:39:49.318Z,4.78
2022-12-06T20:42:21.939Z,7.45
2022-12-06T20:44:54.479Z,5.75
2022-12-06T20:47:27.294Z,6.30
2022-12-06T20:50:00.591Z,4.68
2022-12-06T20:52:33.611Z,5.60
2022-12-06T20:55:06.596Z,5.75
2022-12-06T20:57:39.367Z,5.65
2022-12-06T21:00:12.892Z,5.80
2022-12-06T21:02:45.987Z,5.97
2022-12-06T21:05:19.085Z,5.32
2022-12-06T21:07:51.877Z,4.93
2022-12-06T21:10:24.504Z,6.00
2022-12-06T21:12:59.504Z,4.93
2022-12-06T21:15:35.486Z,7.57
2022-12-06T21:18:08.120Z,5.25
2022-12-06T21:20:40.776Z,10.38
2022-12-06T21:23:13.320Z,9.15
2022-12-06T21:25:45.943Z,6.35
2022-12-06T21:28:18.673Z,5.03
2022-12-06T21:30:53.768Z,5.07
2022-12-06T21:33:26.778Z,5.07
2022-12-06T21:36:05.799Z,5.57
2022-12-06T21:38:39.283Z,5.75
2022-12-06T21:41:13.898Z,4.72
2022-12-06T21:43:46.955Z,4.78
2022-12-06T21:46:23.518Z,4.63
2022-12-06T21:48:59.660Z,4.93
2022-12-06T21:51:32.789Z,4.80
2022-12-06T21:54:05.441Z,4.50
2022-12-06T21:56:38.273Z,4.13
2022-12-06T21:59:10.920Z,5.43
2022-12-06T22:01:43.495Z,4.43
2022-12-06T22:04:16.302Z,5.45
2022-12-06T22:06:48.860Z,6.05
2022-12-06T22:09:21.540Z,5.32
2022-12-06T22:11:54.337Z,5.50
2022-12-06T22:14:26.974Z,5.22
2022-12-06T22:16:59.557Z,5.85
2022-12-06T22:19:32.277Z,5.25
2022-12-06T22:22:05.341Z,5.38
2022-12-06T22:24:37.964Z,5.03
2022-12-06T22:27:10.473Z,5.30
2022-12-06T22:29:43.044Z,5.45
2022-12-06T22:32:15.583Z,4.78
2022-12-06T22:34:48.213Z,4.35
2022-12-06T22:37:25.324Z,4.95
2022-12-06T22:40:01.011Z,5.53
2022-12-06T22:42:35.318Z,4.72
2022-12-06T22:45:08.871Z,5.60
2022-12-06T22:47:41.430Z,4.78
2022-12-06T22:50:13.952Z,4.72
2022-12-06T22:52:46.611Z,4.32
2022-12-06T22:55:19.132Z,5.03
2022-12-06T22:57:51.703Z,4.22
2022-12-06T23:00:24.599Z,5.28
2022-12-06T23:02:58.742Z,4.38
2022-12-06T23:05:31.280Z,5.82
2022-12-06T23:08:04.197Z,5.05
2022-12-06T23:10:36.762Z,4.65
2022-12-06T23:13:09.416Z,4.72
2022-12-06T23:15:42.142Z,5.60
2022-12-06T23:18:14.672Z,4.47
2022-12-06T23:20:47.279Z,4.40
2022-12-06T23:23:19.813Z,4.65
2022-12-06T23:25:52.411Z,5.47
2022-12-06T23:28:24.937Z,5.55
2022-12-06T23:31:12.898Z,5.90
2022-12-06T23:33:46.929Z,5.32
2022-12-06T23:36:23.529Z,4.53
2022-12-06T23:38:56.431Z,5.05
2022-12-06T23:41:31.590Z,4.10
2022-12-06T23:44:06.203Z,4.40
2022-12-06T23:46:41.585Z,4.35
2022-12-06T23:49:18.752Z,4.70
2022-12-06T23:51:51.567Z,4.68
2022-12-06T23:54:24.187Z,4.18
2022-12-06T23:56:56.737Z,4.30
2022-12-06T23:59:29.288Z,4.97
